Time;durP1;ratioP1;P1;durP2;ratioP2;P2;SDS_P1;SDS_P2;PMS_P1;PMS_P2;Temp;Humidity;BMP_temperature;BMP_pressure;BME280_temperature;BME280_humidity;BME280_pressure;Samples;Min_cycle;Max_cycle;Signal;HPM_P1;HPM_P2
2021/01/18 00:01:25;;;;;;;2.53;1.45;;;;;;;18.62;48.79;102328.97;5056905;28;20029;-77
2021/01/18 00:03:50;;;;;;;5.15;1.75;;;;;;;18.60;48.93;102329.81;5046887;28;20029;-77
2021/01/18 00:06:20;;;;;;;5.00;1.50;;;;;;;18.60;48.82;102328.06;5033539;28;20029;-77
2021/01/18 00:08:47;;;;;;;2.15;1.60;;;;;;;18.59;48.54;102326.28;5053695;28;20540;-77
2021/01/18 00:11:14;;;;;;;2.97;1.20;;;;;;;18.59;48.78;102323.69;5052382;28;20032;-77
2021/01/18 00:13:40;;;;;;;5.22;1.98;;;;;;;18.57;48.68;102317.50;5050370;28;20029;-78
2021/01/18 00:16:05;;;;;;;3.92;1.50;;;;;;;18.57;48.76;102317.50;5052905;28;20033;-77
2021/01/18 00:18:31;;;;;;;2.58;1.27;;;;;;;18.56;48.67;102313.13;5053503;28;20078;-77
2021/01/18 00:20:57;;;;;;;3.85;1.23;;;;;;;18.51;48.90;102304.28;5033151;28;20104;-77
2021/01/18 00:23:23;;;;;;;3.28;1.10;;;;;;;18.53;48.53;102311.34;5018894;28;20029;-77
2021/01/18 00:25:49;;;;;;;2.65;0.98;;;;;;;18.52;48.62;102308.69;5035010;28;20440;-77
2021/01/18 00:28:14;;;;;;;2.80;1.52;;;;;;;18.52;48.61;102303.44;5018105;28;20499;-72
2021/01/18 00:30:39;;;;;;;5.38;2.25;;;;;;;18.47;48.53;102299.84;5034400;28;20039;-72
2021/01/18 00:33:05;;;;;;;1.67;1.17;;;;;;;18.46;48.54;102298.09;5029183;28;20041;-72
2021/01/18 00:35:31;;;;;;;3.28;1.00;;;;;;;18.47;48.70;102300.72;5031147;28;20064;-72
2021/01/18 00:37:58;;;;;;;2.80;1.10;;;;;;;18.52;48.76;102301.72;5024845;28;20383;-72
2021/01/18 00:40:27;;;;;;;2.60;1.40;;;;;;;18.45;48.61;102288.44;5023875;28;20476;-72
2021/01/18 00:42:52;;;;;;;2.80;1.50;;;;;;;18.47;48.71;102290.25;5032157;28;20043;-77
2021/01/18 00:45:19;;;;;;;2.30;1.25;;;;;;;18.49;48.62;102295.53;5020577;28;20473;-77
2021/01/18 00:47:54;;;;;;;2.33;0.98;;;;;;;18.48;48.68;102299.00;5025704;28;20061;-77
2021/01/18 00:50:21;;;;;;;3.42;1.17;;;;;;;18.46;48.60;102287.59;5033261;28;20032;-77
2021/01/18 00:52:48;;;;;;;2.42;1.10;;;;;;;18.46;48.68;102285.88;5024893;28;20083;-76
2021/01/18 00:55:17;;;;;;;2.55;1.08;;;;;;;18.45;48.50;102281.47;5036347;28;20090;-76
2021/01/18 00:57:44;;;;;;;1.83;1.17;;;;;;;18.45;48.25;102280.59;5018971;28;20029;-77
2021/01/18 01:00:15;;;;;;;2.15;0.90;;;;;;;18.43;48.42;102269.25;5035468;28;20048;-77
2021/01/18 01:02:42;;;;;;;2.88;1.25;;;;;;;18.44;48.70;102273.59;5050462;28;20024;-77
2021/01/18 01:05:10;;;;;;;2.38;1.27;;;;;;;18.40;48.39;102272.69;5024249;28;20056;-77
2021/01/18 01:07:39;;;;;;;4.32;1.35;;;;;;;18.42;48.36;102275.31;5017281;28;20025;-77
2021/01/18 01:10:05;;;;;;;2.03;1.15;;;;;;;18.41;48.42;102278.78;5035608;28;20020;-77
2021/01/18 01:12:31;;;;;;;3.85;1.52;;;;;;;18.43;48.60;102280.59;5033287;28;20040;-77
2021/01/18 01:14:56;;;;;;;1.58;0.90;;;;;;;18.40;48.35;102279.66;5036904;28;20029;-77
2021/01/18 01:17:23;;;;;;;2.85;1.00;;;;;;;18.40;48.24;102277.91;5012161;28;20037;-77
2021/01/18 01:19:48;;;;;;;2.78;1.15;;;;;;;18.39;48.47;102275.25;5034720;28;20029;-77
2021/01/18 01:22:13;;;;;;;3.42;1.23;;;;;;;18.40;48.41;102277.03;5035702;28;20112;-77
2021/01/18 01:24:39;;;;;;;4.45;1.35;;;;;;;18.40;48.09;102277.03;5035605;28;20036;-77
2021/01/18 01:27:05;;;;;;;2.53;1.10;;;;;;;18.37;48.24;102279.59;5049406;28;20037;-77
2021/01/18 01:29:30;;;;;;;2.60;1.13;;;;;;;18.40;48.31;102280.53;5050692;28;20025;-77
2021/01/18 01:31:55;;;;;;;2.60;1.20;;;;;;;18.35;48.42;102274.31;5005483;28;20028;-77
2021/01/18 01:34:21;;;;;;;1.67;1.00;;;;;;;18.38;48.24;102284.84;5011132;28;20033;-77
2021/01/18 01:36:46;;;;;;;3.83;1.23;;;;;;;18.37;48.26;102284.81;5036342;28;20174;-77
2021/01/18 01:39:11;;;;;;;2.42;1.33;;;;;;;18.37;48.18;102280.47;5037463;28;20074;-77
2021/01/18 01:41:37;;;;;;;3.10;1.40;;;;;;;18.35;48.19;102279.56;5051240;28;20064;-76
2021/01/18 01:44:02;;;;;;;4.82;2.08;;;;;;;18.33;48.09;102269.91;5028078;28;20033;-77
2021/01/18 01:46:28;;;;;;;2.47;1.23;;;;;;;18.35;48.20;102279.56;5015916;28;20033;-72
2021/01/18 01:48:54;;;;;;;2.92;1.20;;;;;;;18.35;48.00;102270.81;5033894;28;20046;-72
2021/01/18 01:51:23;;;;;;;2.28;0.93;;;;;;;18.35;48.09;102276.94;5003659;28;20034;-72
2021/01/18 01:53:49;;;;;;;6.43;1.40;;;;;;;18.31;48.09;102271.59;5048614;28;20025;-72
2021/01/18 01:56:15;;;;;;;1.80;1.05;;;;;;;18.34;48.19;102280.41;5002645;28;20052;-72
2021/01/18 01:58:40;;;;;;;4.25;1.70;;;;;;;18.27;48.11;102265.44;5005294;28;20057;-72
2021/01/18 02:01:06;;;;;;;2.15;1.10;;;;;;;18.33;48.15;102275.13;5049272;28;20080;-73
2021/01/18 02:03:37;;;;;;;2.58;1.48;;;;;;;18.34;48.23;102276.91;5059827;28;20005;-73
2021/01/18 02:06:03;;;;;;;1.92;1.17;;;;;;;18.33;48.01;102272.50;5053062;28;20615;-72
2021/01/18 02:08:28;;;;;;;2.85;1.42;;;;;;;18.24;48.18;102251.41;5052232;28;20040;-72
2021/01/18 02:10:53;;;;;;;2.67;1.00;;;;;;;18.32;48.21;102274.25;5027732;28;20192;-72
2021/01/18 02:13:19;;;;;;;2.88;1.33;;;;;;;18.31;48.25;102272.47;5032112;28;20395;-72
2021/01/18 02:16:12;;;;;;;1.98;1.05;;;;;;;18.30;48.33;102275.09;5052102;28;20570;-72
2021/01/18 02:18:43;;;;;;;1.65;1.10;;;;;;;18.31;48.10;102279.47;5031317;28;20471;-72
2021/01/18 02:21:39;;;;;;;2.78;0.98;;;;;;;18.31;48.16;102268.97;5051978;28;20056;-72
2021/01/18 02:24:25;;;;;;;2.33;0.88;;;;;;;18.28;48.28;102272.47;5045151;28;20025;-72
2021/01/18 02:27:12;;;;;;;2.38;1.65;;;;;;;18.25;48.34;102267.16;5048408;28;20055;-72
2021/01/18 02:29:56;;;;;;;2.63;1.30;;;;;;;18.29;48.30;102273.34;5022780;28;20025;-72
2021/01/18 02:32:53;;;;;;;2.17;1.20;;;;;;;18.27;48.07;102280.28;5053014;28;20067;-72
2021/01/18 02:35:55;;;;;;;2.05;0.90;;;;;;;18.27;48.26;102277.66;5048500;28;20074;-72
2021/01/18 02:38:25;;;;;;;2.63;1.13;;;;;;;18.25;48.08;102280.25;5043448;28;20025;-72
2021/01/18 02:41:00;;;;;;;3.65;1.60;;;;;;;18.27;48.23;102280.28;5029125;28;20025;-72
2021/01/18 02:43:36;;;;;;;1.98;1.08;;;;;;;18.25;48.13;102268.88;5031197;28;20029;-72
2021/01/18 02:46:03;;;;;;;2.72;1.10;;;;;;;18.23;48.27;102267.97;5048604;28;20028;-72
2021/01/18 02:48:30;;;;;;;1.83;0.85;;;;;;;18.24;48.01;102269.75;5041158;28;20033;-72
2021/01/18 02:51:02;;;;;;;2.88;1.40;;;;;;;18.15;48.21;102247.78;5019088;28;20123;-73
2021/01/18 02:53:28;;;;;;;1.83;1.20;;;;;;;18.18;48.44;102249.53;5030055;28;20027;-72
2021/01/18 02:55:53;;;;;;;2.60;1.27;;;;;;;18.17;48.05;102255.66;5017944;28;20033;-72
2021/01/18 02:58:22;;;;;;;3.55;1.55;;;;;;;18.20;48.08;102256.59;5031949;28;20060;-72
2021/01/18 03:01:07;;;;;;;4.32;1.70;;;;;;;18.23;48.17;102260.13;5052449;28;20027;-72
2021/01/18 03:03:49;;;;;;;2.85;1.10;;;;;;;18.20;48.03;102253.97;5050224;28;20029;-72
2021/01/18 03:06:27;;;;;;;3.40;1.35;;;;;;;18.18;48.19;102242.56;5047611;28;20028;-73
2021/01/18 03:09:00;;;;;;;2.08;0.90;;;;;;;18.19;48.04;102243.47;5047636;28;20024;-72
2021/01/18 03:11:32;;;;;;;2.92;1.10;;;;;;;18.18;48.24;102246.94;5049763;28;20122;-72
2021/01/18 03:14:07;;;;;;;3.13;1.92;;;;;;;18.18;48.03;102246.94;5051673;28;20040;-72
2021/01/18 03:16:38;;;;;;;2.75;1.13;;;;;;;18.18;47.82;102244.31;5051417;28;20477;-73
2021/01/18 03:19:04;;;;;;;2.25;1.13;;;;;;;18.18;48.00;102247.81;5025872;28;20025;-72
2021/01/18 03:21:30;;;;;;;2.28;1.17;;;;;;;18.16;48.34;102240.81;5014433;28;20047;-72
2021/01/18 03:23:56;;;;;;;3.17;1.67;;;;;;;18.17;48.13;102246.06;5050409;28;20079;-72
2021/01/18 03:26:28;;;;;;;2.72;1.40;;;;;;;18.15;48.18;102233.81;5032225;28;20033;-72
2021/01/18 03:28:54;;;;;;;2.58;1.25;;;;;;;18.15;47.96;102233.81;5033821;28;20387;-72
2021/01/18 03:31:20;;;;;;;3.88;1.25;;;;;;;18.12;48.28;102229.38;5033482;28;20036;-72
2021/01/18 03:33:46;;;;;;;2.45;1.17;;;;;;;18.15;48.11;102232.06;5014243;28;20041;-77
2021/01/18 03:36:11;;;;;;;3.80;1.30;;;;;;;18.11;48.27;102219.78;5033241;28;20025;-77
2021/01/18 03:38:37;;;;;;;4.32;1.67;;;;;;;18.15;48.13;102223.34;5033480;28;20037;-77
2021/01/18 03:41:03;;;;;;;2.25;1.23;;;;;;;18.15;48.25;102225.94;5018218;28;20040;-77
2021/01/18 03:43:28;;;;;;;1.73;0.90;;;;;;;18.12;48.14;102223.28;5046576;28;20025;-77
2021/01/18 03:45:53;;;;;;;1.98;1.20;;;;;;;18.10;48.29;102220.63;5049154;28;20041;-77
2021/01/18 03:48:19;;;;;;;2.35;0.77;;;;;;;18.11;48.17;102231.97;5030001;28;20057;-77
2021/01/18 03:50:44;;;;;;;2.75;1.60;;;;;;;18.09;48.15;102224.09;5028330;28;20033;-77
2021/01/18 03:53:10;;;;;;;3.45;1.88;;;;;;;18.13;48.29;102223.31;5010125;28;20467;-77
2021/01/18 03:55:36;;;;;;;3.95;1.40;;;;;;;18.11;47.93;102217.16;5030634;28;20117;-77
2021/01/18 03:58:02;;;;;;;2.13;1.20;;;;;;;18.14;48.21;102213.72;5032747;28;20442;-72
2021/01/18 04:00:29;;;;;;;4.10;1.55;;;;;;;18.21;47.81;102212.94;5049911;28;20044;-72
2021/01/18 04:02:56;;;;;;;2.15;1.10;;;;;;;18.30;47.51;102204.41;5027328;28;20025;-72
2021/01/18 04:05:23;;;;;;;1.90;1.20;;;;;;;18.37;47.34;102203.63;5032107;28;20048;-72
2021/01/18 04:07:49;;;;;;;3.55;1.70;;;;;;;18.37;47.68;102214.13;5051529;28;20036;-73
2021/01/18 04:10:16;;;;;;;2.53;1.42;;;;;;;18.42;47.53;102223.81;5031568;28;20041;-72
2021/01/18 04:12:44;;;;;;;2.50;1.10;;;;;;;18.47;47.45;102210.78;5050829;28;20102;-72
2021/01/18 04:15:11;;;;;;;1.85;1.00;;;;;;;18.47;47.67;102205.53;5048604;28;20471;-73
2021/01/18 04:17:50;;;;;;;1.95;1.20;;;;;;;18.48;47.53;102208.19;5052681;28;20429;-73
2021/01/18 04:20:17;;;;;;;2.60;1.00;;;;;;;18.52;47.30;102210.03;5052365;28;20033;-72
2021/01/18 04:22:56;;;;;;;3.03;1.02;;;;;;;18.57;47.07;102208.34;5051924;28;20071;-72
2021/01/18 04:25:25;;;;;;;2.03;1.02;;;;;;;18.54;47.41;102208.31;5034846;28;20036;-72
2021/01/18 04:27:55;;;;;;;1.30;0.93;;;;;;;18.56;47.47;102214.44;5051014;28;20087;-72
2021/01/18 04:30:22;;;;;;;2.22;1.10;;;;;;;18.61;47.42;102203.19;5053897;28;20036;-72
2021/01/18 04:32:58;;;;;;;3.08;1.20;;;;;;;18.61;47.37;102197.94;5052971;28;20029;-72
2021/01/18 04:35:25;;;;;;;2.80;1.67;;;;;;;18.57;47.31;102186.50;5033947;28;20115;-73
2021/01/18 04:37:51;;;;;;;1.73;0.98;;;;;;;18.61;47.32;102193.59;5048824;28;20028;-72
2021/01/18 04:40:18;;;;;;;2.42;1.27;;;;;;;18.68;47.31;102186.72;5054060;28;20059;-72
2021/01/18 04:42:44;;;;;;;2.40;1.00;;;;;;;18.66;47.49;102181.47;5052682;28;20024;-72
2021/01/18 04:45:12;;;;;;;2.38;1.20;;;;;;;18.65;47.44;102182.31;5052321;28;20102;-72
2021/01/18 04:47:38;;;;;;;2.83;1.40;;;;;;;18.68;47.36;102171.00;5050481;28;20475;-73
2021/01/18 04:50:04;;;;;;;1.55;0.98;;;;;;;18.71;47.31;102166.66;5048007;28;20032;-73
2021/01/18 04:52:50;;;;;;;2.15;1.05;;;;;;;18.67;47.40;102177.09;5033398;28;20049;-73
2021/01/18 04:55:32;;;;;;;2.25;1.10;;;;;;;18.68;47.48;102168.38;5052877;28;20043;-73
2021/01/18 04:58:09;;;;;;;2.65;1.30;;;;;;;18.74;47.39;102174.59;5060676;28;20021;-72
2021/01/18 05:00:48;;;;;;;1.92;0.90;;;;;;;18.72;47.56;102172.78;5053405;28;20036;-77
2021/01/18 05:03:16;;;;;;;3.35;1.05;;;;;;;18.64;47.36;102161.31;5054110;28;20052;-77
2021/01/18 05:06:03;;;;;;;2.75;1.00;;;;;;;18.74;47.24;102171.09;5053857;28;20037;-77
2021/01/18 05:08:43;;;;;;;2.88;1.60;;;;;;;18.73;47.64;102164.97;5053589;28;20100;-77
2021/01/18 05:11:13;;;;;;;2.42;1.10;;;;;;;18.69;47.45;102157.94;5036413;28;20029;-76
2021/01/18 05:13:39;;;;;;;2.65;1.33;;;;;;;18.73;47.48;102150.97;5048488;28;20478;-77
2021/01/18 05:16:09;;;;;;;3.47;1.00;;;;;;;18.74;47.33;102150.13;5037049;28;20025;-72
2021/01/18 05:18:36;;;;;;;2.20;1.08;;;;;;;18.70;47.47;102148.31;5047484;28;20024;-72
2021/01/18 05:21:03;;;;;;;1.92;0.93;;;;;;;18.76;47.33;102151.03;5021998;28;20040;-73
2021/01/18 05:23:29;;;;;;;1.73;1.00;;;;;;;18.79;47.30;102159.81;5047832;28;20032;-72
2021/01/18 05:26:13;;;;;;;2.03;1.10;;;;;;;18.76;47.44;102146.66;5013342;28;20029;-72
2021/01/18 05:28:43;;;;;;;3.58;1.27;;;;;;;18.69;47.66;102147.44;5031187;28;20387;-72
2021/01/18 05:31:09;;;;;;;2.33;1.10;;;;;;;18.70;47.74;102159.66;5055102;28;20013;-72
2021/01/18 05:33:37;;;;;;;3.15;1.63;;;;;;;18.67;47.78;102162.25;5033212;28;20044;-73
2021/01/18 05:36:03;;;;;;;3.42;1.10;;;;;;;18.64;47.85;102158.72;5021263;28;20025;-72
2021/01/18 05:38:29;;;;;;;2.80;1.30;;;;;;;18.57;47.99;102149.81;5028748;28;20067;-72
2021/01/18 05:40:58;;;;;;;2.17;1.13;;;;;;;18.61;47.91;102156.03;5049894;28;20048;-72
2021/01/18 05:43:34;;;;;;;2.85;1.08;;;;;;;18.57;47.79;102148.09;5050171;28;21427;-73
2021/01/18 05:46:04;;;;;;;2.15;1.20;;;;;;;18.53;48.03;102134.94;5050681;28;20025;-72
2021/01/18 05:48:30;;;;;;;4.45;1.35;;;;;;;18.48;48.17;102134.84;5033272;28;20037;-73
2021/01/18 05:50:57;;;;;;;3.33;1.08;;;;;;;18.50;48.11;102145.34;5037243;28;20063;-72
2021/01/18 05:53:28;;;;;;;2.20;1.13;;;;;;;18.51;48.02;102141.88;5033824;28;20025;-73
2021/01/18 05:55:54;;;;;;;1.63;0.90;;;;;;;18.51;47.95;102142.78;5027324;28;20053;-73
2021/01/18 05:58:33;;;;;;;1.90;0.95;;;;;;;18.47;48.16;102140.94;5048942;28;20556;-73
2021/01/18 06:01:00;;;;;;;2.53;1.27;;;;;;;18.49;48.10;102143.59;5027766;28;20151;-72
2021/01/18 06:03:30;;;;;;;2.33;1.17;;;;;;;18.44;48.10;102143.50;5052155;28;20025;-73
2021/01/18 06:05:56;;;;;;;2.80;1.20;;;;;;;18.45;47.80;102154.88;5028801;28;20083;-72
2021/01/18 06:08:23;;;;;;;2.75;1.42;;;;;;;18.42;48.13;102149.59;5047322;28;20029;-72
2021/01/18 06:10:51;;;;;;;3.58;1.23;;;;;;;18.43;47.95;102144.41;5036383;28;20032;-72
2021/01/18 06:13:35;;;;;;;2.80;1.50;;;;;;;18.40;48.03;102140.84;5049679;28;20049;-72
2021/01/18 06:16:00;;;;;;;3.30;1.50;;;;;;;18.44;47.93;102137.38;5033420;28;20021;-77
2021/01/18 06:18:27;;;;;;;2.85;1.40;;;;;;;18.41;48.02;102133.00;5050598;28;20367;-77
2021/01/18 06:20:57;;;;;;;5.20;1.67;;;;;;;18.40;47.57;102132.97;5050283;28;20032;-76
2021/01/18 06:23:23;;;;;;;3.35;1.85;;;;;;;18.39;47.91;102136.44;5051453;28;20025;-71
2021/01/18 06:25:52;;;;;;;4.65;1.70;;;;;;;18.42;48.01;102123.41;5037124;28;20035;-73
2021/01/18 06:28:31;;;;;;;4.18;1.48;;;;;;;18.48;47.66;102128.72;5044253;28;20494;-72
2021/01/18 06:30:59;;;;;;;5.90;2.70;;;;;;;18.54;47.34;102120.97;5043358;28;20079;-73
2021/01/18 06:33:40;;;;;;;4.55;2.05;;;;;;;18.68;47.62;102132.59;5048983;28;20029;-73
2021/01/18 06:36:17;;;;;;;3.70;1.60;;;;;;;18.64;47.82;102130.75;5020204;28;20072;-78
2021/01/18 06:39:06;;;;;;;7.00;2.25;;;;;;;18.66;47.75;102128.19;5044113;28;20116;-78
2021/01/18 06:41:37;;;;;;;8.68;2.53;;;;;;;18.66;47.49;102136.91;5048353;28;20033;-78
2021/01/18 06:44:04;;;;;;;7.50;2.35;;;;;;;18.62;47.76;102124.63;5054357;28;20032;-78
2021/01/18 06:46:34;;;;;;;4.95;2.45;;;;;;;18.64;47.93;102128.16;5034633;28;20044;-79
2021/01/18 06:48:59;;;;;;;5.88;2.25;;;;;;;18.73;47.63;102124.78;5034015;28;20033;-78
2021/01/18 06:51:27;;;;;;;4.93;2.13;;;;;;;18.76;47.74;102127.44;5030643;28;20033;-78
2021/01/18 06:53:55;;;;;;;5.45;2.03;;;;;;;18.72;47.65;102134.38;5029672;28;20029;-79
2021/01/18 06:56:23;;;;;;;5.07;2.35;;;;;;;18.76;47.64;102138.81;5049121;28;20425;-79
2021/01/18 06:58:51;;;;;;;4.70;2.15;;;;;;;18.84;47.58;102145.03;5047151;28;20068;-77
2021/01/18 07:01:29;;;;;;;5.32;2.53;;;;;;;18.81;47.56;102141.50;5048470;28;20029;-77
2021/01/18 07:04:02;;;;;;;4.97;2.08;;;;;;;18.80;47.71;102153.72;5054244;28;20099;-77
2021/01/18 07:06:36;;;;;;;4.60;1.88;;;;;;;18.85;47.62;102148.53;5026160;28;20017;-78
2021/01/18 07:09:10;;;;;;;5.43;2.00;;;;;;;18.90;47.53;102152.09;5047464;28;20051;-74
2021/01/18 07:11:35;;;;;;;;;;;;;;;18.86;47.58;102152.91;5043315;28;20037;-78
2021/01/18 07:14:12;;;;;;;2.42;1.52;;;;;;;18.85;47.67;102152.03;5047584;28;19917;-78
2021/01/18 07:16:42;;;;;;;4.63;1.83;;;;;;;18.90;47.69;102166.09;5042278;28;20136;-74
2021/01/18 07:19:08;;;;;;;3.65;1.70;;;;;;;18.88;47.53;102159.94;5054213;28;20017;-78
2021/01/18 07:22:05;;;;;;;5.10;2.35;;;;;;;18.88;47.47;102159.06;5052226;28;20048;-78
2021/01/18 07:24:35;;;;;;;3.88;2.00;;;;;;;18.91;47.46;102159.13;5052752;28;20025;-77
2021/01/18 07:27:05;;;;;;;3.67;1.50;;;;;;;18.89;47.47;102156.47;5018541;28;20116;-77
2021/01/18 07:29:32;;;;;;;3.40;2.33;;;;;;;18.91;47.41;102157.38;5052791;28;20025;-73
2021/01/18 07:31:59;;;;;;;5.25;2.25;;;;;;;19.03;47.64;102167.16;5052590;28;20039;-78
2021/01/18 07:34:26;;;;;;;6.25;1.60;;;;;;;19.09;47.41;102154.09;5036068;28;20391;-76
2021/01/18 07:36:53;;;;;;;3.55;1.73;;;;;;;19.13;47.34;102161.16;5052001;28;20506;-79
2021/01/18 07:39:22;;;;;;;4.15;1.48;;;;;;;19.11;47.46;102157.63;5051858;28;20122;-78
2021/01/18 07:41:48;;;;;;;4.35;2.40;;;;;;;19.13;47.44;102166.41;5036532;28;20040;-77
2021/01/18 07:44:44;;;;;;;4.63;2.13;;;;;;;19.04;47.56;102158.44;5035072;28;20030;-73
2021/01/18 07:47:12;;;;;;;2.88;1.70;;;;;;;19.06;47.74;102156.72;5051487;28;20017;-73
2021/01/18 07:49:45;;;;;;;4.55;1.70;;;;;;;19.14;47.27;102156.81;5029003;28;20475;-78
2021/01/18 07:52:19;;;;;;;2.95;1.30;;;;;;;19.12;47.13;102162.03;5034709;28;20388;-77
2021/01/18 07:54:46;;;;;;;3.75;1.70;;;;;;;19.13;47.19;102157.66;5054635;28;20051;-78
2021/01/18 07:57:33;;;;;;;7.32;1.95;;;;;;;19.21;47.15;102159.50;5036024;28;20024;-78
2021/01/18 08:00:22;;;;;;;3.70;2.05;;;;;;;19.16;47.03;102149.84;5057466;28;20082;-77
2021/01/18 08:02:53;;;;;;;3.38;1.48;;;;;;;19.14;47.36;102160.31;5048067;28;20036;-78
2021/01/18 08:05:27;;;;;;;4.72;1.45;;;;;;;19.22;47.07;102150.78;5048503;28;20108;-78
2021/01/18 08:08:15;;;;;;;2.97;1.50;;;;;;;19.22;47.20;102142.03;5046404;28;20044;-79
2021/01/18 08:10:55;;;;;;;4.70;1.88;;;;;;;19.17;47.16;102144.63;5043923;28;20056;-73
2021/01/18 08:13:33;;;;;;;4.55;1.60;;;;;;;19.22;47.07;102139.41;5049994;28;20041;-73
2021/01/18 08:16:12;;;;;;;4.03;1.52;;;;;;;19.20;47.10;102134.19;5039600;28;20540;-73
2021/01/18 08:18:56;;;;;;;3.45;1.52;;;;;;;19.19;47.15;102135.03;5030204;28;20032;-78
2021/01/18 08:21:33;;;;;;;3.20;1.90;;;;;;;19.26;47.18;102135.97;5035400;28;20031;-79
2021/01/18 08:23:59;;;;;;;2.58;1.35;;;;;;;19.24;47.01;102124.56;5023544;28;20021;-73
2021/01/18 08:26:25;;;;;;;2.95;1.67;;;;;;;19.16;47.03;102121.88;5039054;28;20490;-72
2021/01/18 08:28:50;;;;;;;2.45;1.50;;;;;;;19.24;47.07;102129.81;5025405;28;20106;-73
2021/01/18 08:31:15;;;;;;;3.00;1.35;;;;;;;19.26;46.94;102118.50;5032595;28;20037;-73
2021/01/18 08:33:41;;;;;;;3.63;1.30;;;;;;;19.23;46.98;102121.06;5046533;28;20036;-73
2021/01/18 08:36:06;;;;;;;3.72;1.45;;;;;;;19.22;47.07;102118.44;5028584;28;20495;-73
2021/01/18 08:38:32;;;;;;;2.50;1.20;;;;;;;19.27;46.93;102119.38;5016855;28;20025;-72
2021/01/18 08:41:07;;;;;;;3.42;1.40;;;;;;;19.23;46.99;102120.19;5051928;28;20031;-72
2021/01/18 08:44:05;;;;;;;1.63;1.30;;;;;;;19.23;47.06;102125.44;5045116;28;20111;-74
2021/01/18 08:46:40;;;;;;;4.22;2.15;;;;;;;19.29;46.93;102125.53;5010962;28;20037;-73
2021/01/18 08:49:28;;;;;;;3.65;1.80;;;;;;;19.24;47.00;102116.72;5026622;28;20066;-74
2021/01/18 08:51:54;;;;;;;7.15;2.75;;;;;;;19.20;47.23;102100.09;5035971;28;20029;-73
2021/01/18 08:54:38;;;;;;;2.22;1.45;;;;;;;19.35;47.05;102106.34;5001706;28;20025;-73
2021/01/18 08:57:24;;;;;;;4.18;1.70;;;;;;;19.24;46.89;102101.84;5027922;28;20029;-73
2021/01/18 09:00:06;;;;;;;2.90;1.60;;;;;;;19.29;46.98;102101.94;5017306;28;20033;-73
2021/01/18 09:02:31;;;;;;;3.58;1.30;;;;;;;19.29;46.95;102099.31;5045396;28;20092;-75
2021/01/18 09:05:21;;;;;;;3.13;1.60;;;;;;;19.30;47.00;102103.69;5025088;28;20056;-74
2021/01/18 09:07:49;;;;;;;3.97;1.23;;;;;;;19.31;47.13;102105.44;5023849;28;20442;-74
2021/01/18 09:10:16;;;;;;;3.72;1.55;;;;;;;19.32;46.87;102106.34;5025173;28;20496;-74
2021/01/18 09:12:43;;;;;;;3.67;1.45;;;;;;;19.34;46.74;102107.22;5034685;28;20045;-74
2021/01/18 09:15:10;;;;;;;2.50;1.50;;;;;;;19.31;47.15;102105.44;5047784;28;20047;-74
2021/01/18 09:17:35;;;;;;;2.47;1.35;;;;;;;19.32;47.06;102091.47;5026581;28;20029;-73
2021/01/18 09:20:06;;;;;;;2.45;1.10;;;;;;;19.34;46.79;102081.88;5042294;28;20344;-74
2021/01/18 09:22:39;;;;;;;4.20;1.92;;;;;;;19.30;46.68;102082.72;5029691;28;20021;-74
2021/01/18 09:25:06;;;;;;;3.53;1.33;;;;;;;19.34;46.84;102079.25;5020170;28;20048;-73
2021/01/18 09:27:33;;;;;;;3.40;1.77;;;;;;;19.37;46.68;102074.03;5011705;28;20072;-74
2021/01/18 09:30:08;;;;;;;2.72;1.40;;;;;;;19.33;46.79;102085.38;5046680;28;20474;-74
2021/01/18 09:32:36;;;;;;;3.33;1.50;;;;;;;19.29;46.83;102070.44;5045231;28;20116;-74
2021/01/18 09:35:10;;;;;;;4.75;1.80;;;;;;;19.33;46.75;102088.00;5044419;28;20407;-74
2021/01/18 09:37:41;;;;;;;2.50;0.98;;;;;;;19.32;46.92;102074.84;5045018;28;20033;-76
2021/01/18 09:40:07;;;;;;;3.13;1.30;;;;;;;19.32;47.13;102075.75;5025181;28;20567;-76
2021/01/18 09:42:33;;;;;;;2.72;1.42;;;;;;;19.36;46.93;102077.50;5037049;28;20029;-78
2021/01/18 09:44:59;;;;;;;2.72;1.13;;;;;;;19.37;46.87;102074.03;5030349;28;20402;-79
2021/01/18 09:47:24;;;;;;;6.28;1.67;;;;;;;19.39;47.36;102076.66;5025107;28;20034;-79
2021/01/18 09:49:50;;;;;;;3.47;1.27;;;;;;;19.47;47.51;102077.66;5043242;28;20033;-81
2021/01/18 09:52:16;;;;;;;3.28;1.10;;;;;;;19.47;47.77;102083.78;5031141;28;20116;-76
2021/01/18 09:54:46;;;;;;;3.75;1.88;;;;;;;19.44;48.13;102070.63;5050030;28;20040;-76
2021/01/18 09:57:14;;;;;;;3.45;1.33;;;;;;;19.42;48.28;102080.22;5051888;28;20036;-79
2021/01/18 09:59:42;;;;;;;7.18;2.63;;;;;;;19.40;48.53;102074.06;5052861;28;20025;-78
2021/01/18 10:02:12;;;;;;;5.82;1.88;;;;;;;19.36;48.66;102069.63;5052130;28;20029;-79
2021/01/18 10:04:39;;;;;;;4.57;2.03;;;;;;;19.27;48.86;102062.56;5008538;28;20029;-80
2021/01/18 10:07:09;;;;;;;3.13;1.67;;;;;;;19.26;48.91;102078.28;5042909;28;20386;-78
2021/01/18 10:09:35;;;;;;;5.50;1.25;;;;;;;19.26;49.07;102081.78;5036686;28;20505;-76
2021/01/18 10:12:03;;;;;;;4.63;1.27;;;;;;;19.25;49.39;102073.88;5054535;28;20049;-75
2021/01/18 10:14:28;;;;;;;2.78;1.38;;;;;;;19.26;49.30;102088.75;5043088;28;20073;-76
2021/01/18 10:17:04;;;;;;;3.17;1.70;;;;;;;19.25;49.51;102080.03;5055143;28;20029;-79
2021/01/18 10:19:31;;;;;;;5.82;1.67;;;;;;;19.23;49.92;102081.75;5028409;28;20059;-78
2021/01/18 10:21:58;;;;;;;3.40;1.40;;;;;;;19.16;49.70;102064.19;5042702;28;20021;-79
2021/01/18 10:27:01;;;;;;;4.28;1.30;;;;;;;19.17;49.68;102071.19;5060657;28;20052;-79
2021/01/18 10:29:27;;;;;;;7.63;2.08;;;;;;;19.18;49.68;102070.34;5057289;28;20043;-80
2021/01/18 10:31:53;;;;;;;2.60;1.45;;;;;;;19.18;49.94;102077.31;5054242;28;20033;-79
2021/01/18 10:34:21;;;;;;;5.72;1.75;;;;;;;19.20;49.71;102075.59;5033064;28;20039;-79
2021/01/18 10:36:48;;;;;;;4.47;2.47;;;;;;;19.12;49.76;102072.00;5055643;28;20021;-78
2021/01/18 10:39:31;;;;;;;7.55;1.77;;;;;;;19.09;49.95;102071.94;5054001;28;20024;-78
2021/01/18 10:42:10;;;;;;;5.47;1.60;;;;;;;19.08;49.93;102075.47;5065076;28;20028;-78
2021/01/18 10:44:39;;;;;;;5.10;1.70;;;;;;;19.05;49.83;102076.28;5049853;28;20721;-78
2021/01/18 10:47:04;;;;;;;9.55;2.97;;;;;;;19.04;49.83;102074.53;5042329;28;20036;-77
2021/01/18 10:49:32;;;;;;;5.75;1.85;;;;;;;18.98;49.66;102070.94;5060118;28;20025;-77
2021/01/18 10:52:05;;;;;;;2.88;1.80;;;;;;;18.98;49.66;102074.44;5052661;28;20747;-78
2021/01/18 10:54:32;;;;;;;4.20;1.80;;;;;;;18.95;49.50;102069.19;5041979;28;20033;-78
2021/01/18 10:56:58;;;;;;;3.97;1.42;;;;;;;18.98;49.28;102069.19;5047305;28;20029;-78
2021/01/18 10:59:24;;;;;;;3.40;1.35;;;;;;;18.95;49.50;102071.81;5070295;28;20032;-78
2021/01/18 11:02:07;;;;;;;4.93;1.30;;;;;;;18.98;49.45;102068.31;5061268;28;20029;-77
2021/01/18 11:04:35;;;;;;;3.63;1.63;;;;;;;18.91;49.23;102056.88;5045633;28;20087;-78
2021/01/18 11:07:02;;;;;;;3.50;1.52;;;;;;;18.95;49.40;102066.56;5065308;28;20029;-78
2021/01/18 11:09:34;;;;;;;3.60;1.45;;;;;;;18.88;49.26;102060.34;5053844;28;20129;-78
2021/01/18 11:12:04;;;;;;;3.25;2.10;;;;;;;18.91;49.27;102059.50;5036512;28;20032;-78
2021/01/18 11:14:31;;;;;;;4.35;2.20;;;;;;;18.87;49.12;102050.72;5050328;28;20029;-75
2021/01/18 11:17:07;;;;;;;6.50;1.92;;;;;;;18.88;48.67;102055.09;5033246;28;20099;-76
2021/01/18 11:19:35;;;;;;;6.15;1.75;;;;;;;18.92;49.00;102059.53;5052055;28;20043;-78
2021/01/18 11:22:01;;;;;;;2.95;1.48;;;;;;;18.99;48.87;102062.22;5050707;28;20488;-73
2021/01/18 11:24:26;;;;;;;3.85;1.88;;;;;;;19.00;48.81;102059.63;5023022;28;20033;-72
2021/01/18 11:26:53;;;;;;;19.00;14.15;;;;;;;19.06;49.29;102057.09;5013943;28;20106;-72
2021/01/18 11:29:20;;;;;;;20.05;14.85;;;;;;;19.01;49.08;102050.00;5044940;28;20087;-73
2021/01/18 11:31:47;;;;;;;20.83;15.40;;;;;;;19.07;49.24;102053.59;5054600;28;20024;-73
2021/01/18 11:34:14;;;;;;;23.25;16.25;;;;;;;18.99;49.31;102036.88;5050202;28;20029;-73
2021/01/18 11:36:40;;;;;;;22.73;15.73;;;;;;;19.06;49.48;102053.56;5053016;28;20044;-73
2021/01/18 11:39:07;;;;;;;20.27;16.75;;;;;;;19.03;49.45;102045.66;5052987;28;20480;-73
2021/01/18 11:41:36;;;;;;;21.20;16.83;;;;;;;19.01;49.65;102050.88;5052951;28;20033;-72